sensor_id;sensor_type;location;lat;lon;timestamp;P1;durP1;ratioP1;P2;durP2;ratioP2
24401;SDS011;12539;48.808;11.292;2022-07-18T00:01:33;1.80;;;1.00;;
24401;SDS011;12539;48.808;11.292;2022-07-18T00:04:00;2.80;;;1.20;;
24401;SDS011;12539;48.808;11.292;2022-07-18T00:06:26;3.10;;;0.70;;
24401;SDS011;12539;48.808;11.292;2022-07-18T00:08:52;1.98;;;0.88;;
24401;SDS011;12539;48.808;11.292;2022-07-18T00:11:18;1.73;;;0.75;;
24401;SDS011;12539;48.808;11.292;2022-07-18T00:13:44;1.88;;;0.80;;
24401;SDS011;12539;48.808;11.292;2022-07-18T00:16:10;2.85;;;1.20;;
24401;SDS011;12539;48.808;11.292;2022-07-18T00:18:36;2.75;;;1.00;;
24401;SDS011;12539;48.808;11.292;2022-07-18T00:21:02;4.15;;;1.27;;
24401;SDS011;12539;48.808;11.292;2022-07-18T00:23:28;4.05;;;1.02;;
24401;SDS011;12539;48.808;11.292;2022-07-18T00:25:53;1.38;;;0.63;;
24401;SDS011;12539;48.808;11.292;2022-07-18T00:28:19;2.90;;;1.00;;
24401;SDS011;12539;48.808;11.292;2022-07-18T00:30:45;1.40;;;0.85;;
24401;SDS011;12539;48.808;11.292;2022-07-18T00:33:10;0.82;;;0.60;;
24401;SDS011;12539;48.808;11.292;2022-07-18T00:35:36;1.60;;;1.00;;
24401;SDS011;12539;48.808;11.292;2022-07-18T00:38:02;1.27;;;0.70;;
24401;SDS011;12539;48.808;11.292;2022-07-18T00:40:28;1.48;;;0.68;;
24401;SDS011;12539;48.808;11.292;2022-07-18T00:42:55;1.40;;;0.77;;
24401;SDS011;12539;48.808;11.292;2022-07-18T00:45:20;0.88;;;0.70;;
24401;SDS011;12539;48.808;11.292;2022-07-18T00:47:46;1.38;;;0.80;;
24401;SDS011;12539;48.808;11.292;2022-07-18T00:50:12;0.90;;;0.73;;
24401;SDS011;12539;48.808;11.292;2022-07-18T00:52:38;1.80;;;1.00;;
24401;SDS011;12539;48.808;11.292;2022-07-18T00:55:04;0.90;;;0.52;;
24401;SDS011;12539;48.808;11.292;2022-07-18T00:57:31;1.55;;;0.52;;
24401;SDS011;12539;48.808;11.292;2022-07-18T00:59:57;1.83;;;0.90;;
24401;SDS011;12539;48.808;11.292;2022-07-18T01:02:41;2.20;;;1.10;;
24401;SDS011;12539;48.808;11.292;2022-07-18T01:05:07;1.60;;;0.95;;
24401;SDS011;12539;48.808;11.292;2022-07-18T01:07:34;0.70;;;0.70;;
24401;SDS011;12539;48.808;11.292;2022-07-18T01:10:01;2.63;;;0.70;;
24401;SDS011;12539;48.808;11.292;2022-07-18T01:12:28;3.08;;;0.70;;
24401;SDS011;12539;48.808;11.292;2022-07-18T01:14:54;1.55;;;0.70;;
24401;SDS011;12539;48.808;11.292;2022-07-18T01:17:21;0.98;;;0.70;;
24401;SDS011;12539;48.808;11.292;2022-07-18T01:19:47;0.85;;;0.60;;
24401;SDS011;12539;48.808;11.292;2022-07-18T01:22:14;1.02;;;0.68;;
24401;SDS011;12539;48.808;11.292;2022-07-18T01:24:42;0.95;;;0.75;;
24401;SDS011;12539;48.808;11.292;2022-07-18T01:27:08;2.42;;;0.90;;
24401;SDS011;12539;48.808;11.292;2022-07-18T01:29:42;1.52;;;0.85;;
24401;SDS011;12539;48.808;11.292;2022-07-18T01:32:09;1.48;;;0.60;;
24401;SDS011;12539;48.808;11.292;2022-07-18T01:34:36;1.90;;;0.60;;
24401;SDS011;12539;48.808;11.292;2022-07-18T01:37:02;1.15;;;0.88;;
24401;SDS011;12539;48.808;11.292;2022-07-18T01:39:29;1.73;;;0.57;;
24401;SDS011;12539;48.808;11.292;2022-07-18T01:42:05;0.82;;;0.63;;
24401;SDS011;12539;48.808;11.292;2022-07-18T01:44:33;1.50;;;0.80;;
24401;SDS011;12539;48.808;11.292;2022-07-18T01:46:59;0.90;;;0.60;;
24401;SDS011;12539;48.808;11.292;2022-07-18T01:49:26;1.40;;;0.57;;
24401;SDS011;12539;48.808;11.292;2022-07-18T01:51:53;2.33;;;0.80;;
24401;SDS011;12539;48.808;11.292;2022-07-18T01:54:23;2.53;;;1.10;;
24401;SDS011;12539;48.808;11.292;2022-07-18T01:59:16;2.03;;;0.85;;
24401;SDS011;12539;48.808;11.292;2022-07-18T02:01:42;0.88;;;0.80;;
24401;SDS011;12539;48.808;11.292;2022-07-18T02:04:08;1.98;;;0.93;;
24401;SDS011;12539;48.808;11.292;2022-07-18T02:06:34;1.38;;;0.65;;
24401;SDS011;12539;48.808;11.292;2022-07-18T02:08:59;3.80;;;1.10;;
24401;SDS011;12539;48.808;11.292;2022-07-18T02:11:25;2.10;;;0.80;;
24401;SDS011;12539;48.808;11.292;2022-07-18T02:13:51;1.90;;;0.98;;
24401;SDS011;12539;48.808;11.292;2022-07-18T02:16:17;0.98;;;0.80;;
24401;SDS011;12539;48.808;11.292;2022-07-18T02:18:43;0.85;;;0.60;;
24401;SDS011;12539;48.808;11.292;2022-07-18T02:21:09;2.90;;;0.90;;
24401;SDS011;12539;48.808;11.292;2022-07-18T02:23:35;1.08;;;0.60;;
24401;SDS011;12539;48.808;11.292;2022-07-18T02:26:02;1.63;;;0.90;;
24401;SDS011;12539;48.808;11.292;2022-07-18T02:28:28;1.00;;;0.80;;
24401;SDS011;12539;48.808;11.292;2022-07-18T02:30:54;4.28;;;1.10;;
24401;SDS011;12539;48.808;11.292;2022-07-18T02:33:19;1.17;;;0.70;;
24401;SDS011;12539;48.808;11.292;2022-07-18T02:35:45;2.88;;;0.80;;
24401;SDS011;12539;48.808;11.292;2022-07-18T02:38:11;0.95;;;0.60;;
24401;SDS011;12539;48.808;11.292;2022-07-18T02:40:37;0.80;;;0.47;;
24401;SDS011;12539;48.808;11.292;2022-07-18T02:43:02;0.60;;;0.60;;
24401;SDS011;12539;48.808;11.292;2022-07-18T02:45:29;0.73;;;0.60;;
24401;SDS011;12539;48.808;11.292;2022-07-18T02:47:55;1.00;;;0.82;;
24401;SDS011;12539;48.808;11.292;2022-07-18T02:50:20;4.40;;;0.90;;
24401;SDS011;12539;48.808;11.292;2022-07-18T02:52:46;2.25;;;0.77;;
24401;SDS011;12539;48.808;11.292;2022-07-18T02:55:13;2.70;;;0.80;;
24401;SDS011;12539;48.808;11.292;2022-07-18T02:57:39;1.33;;;0.40;;
24401;SDS011;12539;48.808;11.292;2022-07-18T03:00:06;2.25;;;0.85;;
24401;SDS011;12539;48.808;11.292;2022-07-18T03:02:37;1.75;;;0.70;;
24401;SDS011;12539;48.808;11.292;2022-07-18T03:05:03;4.15;;;0.88;;
24401;SDS011;12539;48.808;11.292;2022-07-18T03:07:29;2.20;;;0.90;;
24401;SDS011;12539;48.808;11.292;2022-07-18T03:09:55;0.73;;;0.57;;
24401;SDS011;12539;48.808;11.292;2022-07-18T03:12:21;1.15;;;0.70;;
24401;SDS011;12539;48.808;11.292;2022-07-18T03:14:47;2.58;;;1.00;;
24401;SDS011;12539;48.808;11.292;2022-07-18T03:17:13;1.85;;;0.90;;
24401;SDS011;12539;48.808;11.292;2022-07-18T03:19:38;1.52;;;0.82;;
24401;SDS011;12539;48.808;11.292;2022-07-18T03:22:04;2.92;;;0.70;;
24401;SDS011;12539;48.808;11.292;2022-07-18T03:24:31;0.95;;;0.73;;
24401;SDS011;12539;48.808;11.292;2022-07-18T03:26:57;2.33;;;0.88;;
24401;SDS011;12539;48.808;11.292;2022-07-18T03:29:23;0.80;;;0.80;;
24401;SDS011;12539;48.808;11.292;2022-07-18T03:31:49;3.88;;;0.90;;
24401;SDS011;12539;48.808;11.292;2022-07-18T03:34:14;0.85;;;0.70;;
24401;SDS011;12539;48.808;11.292;2022-07-18T03:36:40;2.10;;;0.90;;
24401;SDS011;12539;48.808;11.292;2022-07-18T03:39:07;1.63;;;0.68;;
24401;SDS011;12539;48.808;11.292;2022-07-18T03:41:34;2.30;;;0.73;;
24401;SDS011;12539;48.808;11.292;2022-07-18T03:44:00;3.60;;;0.88;;
24401;SDS011;12539;48.808;11.292;2022-07-18T03:46:26;1.10;;;0.80;;
24401;SDS011;12539;48.808;11.292;2022-07-18T03:48:52;1.30;;;0.90;;
24401;SDS011;12539;48.808;11.292;2022-07-18T03:51:18;1.10;;;0.77;;
24401;SDS011;12539;48.808;11.292;2022-07-18T03:53:43;1.08;;;0.85;;
24401;SDS011;12539;48.808;11.292;2022-07-18T03:56:09;1.10;;;0.73;;
24401;SDS011;12539;48.808;11.292;2022-07-18T03:58:35;0.88;;;0.73;;
24401;SDS011;12539;48.808;11.292;2022-07-18T04:01:01;3.75;;;1.10;;
24401;SDS011;12539;48.808;11.292;2022-07-18T04:03:27;1.95;;;0.93;;
24401;SDS011;12539;48.808;11.292;2022-07-18T04:05:52;2.13;;;0.82;;
24401;SDS011;12539;48.808;11.292;2022-07-18T04:08:19;2.00;;;1.00;;
24401;SDS011;12539;48.808;11.292;2022-07-18T04:10:45;1.25;;;0.77;;
24401;SDS011;12539;48.808;11.292;2022-07-18T04:13:11;1.35;;;0.77;;
24401;SDS011;12539;48.808;11.292;2022-07-18T04:15:37;3.72;;;0.70;;
24401;SDS011;12539;48.808;11.292;2022-07-18T04:18:06;0.88;;;0.50;;
24401;SDS011;12539;48.808;11.292;2022-07-18T04:20:33;3.65;;;0.70;;
24401;SDS011;12539;48.808;11.292;2022-07-18T04:23:01;0.90;;;0.50;;
24401;SDS011;12539;48.808;11.292;2022-07-18T04:25:29;0.65;;;0.52;;
24401;SDS011;12539;48.808;11.292;2022-07-18T04:27:59;1.05;;;0.65;;
24401;SDS011;12539;48.808;11.292;2022-07-18T04:30:25;1.00;;;0.70;;
24401;SDS011;12539;48.808;11.292;2022-07-18T04:32:52;0.80;;;0.70;;
24401;SDS011;12539;48.808;11.292;2022-07-18T04:35:18;1.15;;;0.60;;
24401;SDS011;12539;48.808;11.292;2022-07-18T04:37:44;1.80;;;0.98;;
24401;SDS011;12539;48.808;11.292;2022-07-18T04:40:10;1.05;;;0.60;;
24401;SDS011;12539;48.808;11.292;2022-07-18T04:42:37;1.45;;;0.82;;
24401;SDS011;12539;48.808;11.292;2022-07-18T04:45:03;1.90;;;1.10;;
24401;SDS011;12539;48.808;11.292;2022-07-18T04:47:30;3.08;;;1.23;;
24401;SDS011;12539;48.808;11.292;2022-07-18T04:49:56;2.97;;;1.00;;
24401;SDS011;12539;48.808;11.292;2022-07-18T04:52:21;2.17;;;0.90;;
24401;SDS011;12539;48.808;11.292;2022-07-18T04:54:48;0.88;;;0.70;;
24401;SDS011;12539;48.808;11.292;2022-07-18T04:57:13;12.93;;;1.63;;
24401;SDS011;12539;48.808;11.292;2022-07-18T04:59:42;3.38;;;1.17;;
24401;SDS011;12539;48.808;11.292;2022-07-18T05:02:09;4.75;;;0.95;;
24401;SDS011;12539;48.808;11.292;2022-07-18T05:04:35;4.07;;;0.90;;
24401;SDS011;12539;48.808;11.292;2022-07-18T05:07:04;3.03;;;0.90;;
24401;SDS011;12539;48.808;11.292;2022-07-18T05:09:31;3.28;;;1.02;;
24401;SDS011;12539;48.808;11.292;2022-07-18T05:11:57;2.72;;;1.30;;
24401;SDS011;12539;48.808;11.292;2022-07-18T05:14:23;3.33;;;1.33;;
24401;SDS011;12539;48.808;11.292;2022-07-18T05:16:49;5.00;;;1.33;;
24401;SDS011;12539;48.808;11.292;2022-07-18T05:19:14;2.65;;;1.05;;
24401;SDS011;12539;48.808;11.292;2022-07-18T05:21:41;2.72;;;1.30;;
24401;SDS011;12539;48.808;11.292;2022-07-18T05:24:07;1.63;;;0.98;;
24401;SDS011;12539;48.808;11.292;2022-07-18T05:26:33;1.80;;;1.05;;
24401;SDS011;12539;48.808;11.292;2022-07-18T05:29:01;2.55;;;1.00;;
24401;SDS011;12539;48.808;11.292;2022-07-18T05:31:27;3.38;;;1.13;;
24401;SDS011;12539;48.808;11.292;2022-07-18T05:33:53;2.10;;;1.13;;
24401;SDS011;12539;48.808;11.292;2022-07-18T05:36:18;2.50;;;1.27;;
24401;SDS011;12539;48.808;11.292;2022-07-18T05:38:44;2.85;;;1.05;;
24401;SDS011;12539;48.808;11.292;2022-07-18T05:41:10;2.45;;;1.30;;
24401;SDS011;12539;48.808;11.292;2022-07-18T05:43:35;3.53;;;1.35;;
24401;SDS011;12539;48.808;11.292;2022-07-18T05:46:01;3.38;;;1.52;;
24401;SDS011;12539;48.808;11.292;2022-07-18T05:48:27;1.70;;;1.27;;
24401;SDS011;12539;48.808;11.292;2022-07-18T05:50:53;3.88;;;1.17;;
24401;SDS011;12539;48.808;11.292;2022-07-18T05:53:19;2.03;;;1.27;;
24401;SDS011;12539;48.808;11.292;2022-07-18T05:55:44;2.15;;;1.30;;
24401;SDS011;12539;48.808;11.292;2022-07-18T05:58:10;2.67;;;1.30;;
24401;SDS011;12539;48.808;11.292;2022-07-18T06:00:35;2.30;;;1.08;;
24401;SDS011;12539;48.808;11.292;2022-07-18T06:03:01;3.45;;;1.40;;
24401;SDS011;12539;48.808;11.292;2022-07-18T06:05:27;4.60;;;1.33;;
24401;SDS011;12539;48.808;11.292;2022-07-18T06:07:53;3.30;;;1.10;;
24401;SDS011;12539;48.808;11.292;2022-07-18T06:10:20;4.13;;;1.30;;
24401;SDS011;12539;48.808;11.292;2022-07-18T06:12:47;2.60;;;1.20;;
24401;SDS011;12539;48.808;11.292;2022-07-18T06:15:13;4.40;;;1.50;;
24401;SDS011;12539;48.808;11.292;2022-07-18T06:17:39;2.92;;;1.60;;
24401;SDS011;12539;48.808;11.292;2022-07-18T06:20:06;2.20;;;1.35;;
24401;SDS011;12539;48.808;11.292;2022-07-18T06:22:33;4.25;;;1.40;;
24401;SDS011;12539;48.808;11.292;2022-07-18T06:25:00;3.03;;;1.50;;
24401;SDS011;12539;48.808;11.292;2022-07-18T06:27:27;1.75;;;1.25;;
24401;SDS011;12539;48.808;11.292;2022-07-18T06:29:52;4.05;;;1.55;;
24401;SDS011;12539;48.808;11.292;2022-07-18T06:32:18;3.35;;;1.48;;
24401;SDS011;12539;48.808;11.292;2022-07-18T06:34:43;5.82;;;1.42;;
24401;SDS011;12539;48.808;11.292;2022-07-18T06:37:09;3.35;;;1.33;;
24401;SDS011;12539;48.808;11.292;2022-07-18T06:39:35;3.05;;;1.40;;
24401;SDS011;12539;48.808;11.292;2022-07-18T06:42:01;4.43;;;1.58;;
24401;SDS011;12539;48.808;11.292;2022-07-18T06:44:26;2.03;;;1.38;;
24401;SDS011;12539;48.808;11.292;2022-07-18T06:46:52;3.50;;;1.35;;
24401;SDS011;12539;48.808;11.292;2022-07-18T06:49:18;5.47;;;1.20;;
24401;SDS011;12539;48.808;11.292;2022-07-18T06:51:44;2.60;;;1.50;;
24401;SDS011;12539;48.808;11.292;2022-07-18T06:54:10;3.65;;;1.63;;
24401;SDS011;12539;48.808;11.292;2022-07-18T06:56:35;4.70;;;1.40;;
24401;SDS011;12539;48.808;11.292;2022-07-18T06:59:01;3.03;;;1.42;;
24401;SDS011;12539;48.808;11.292;2022-07-18T07:01:27;2.85;;;1.25;;
24401;SDS011;12539;48.808;11.292;2022-07-18T07:03:53;2.13;;;1.70;;
24401;SDS011;12539;48.808;11.292;2022-07-18T07:06:18;2.10;;;1.20;;
24401;SDS011;12539;48.808;11.292;2022-07-18T07:08:44;3.28;;;1.13;;
24401;SDS011;12539;48.808;11.292;2022-07-18T07:11:10;3.97;;;1.40;;
24401;SDS011;12539;48.808;11.292;2022-07-18T07:16:01;2.58;;;1.20;;
24401;SDS011;12539;48.808;11.292;2022-07-18T07:18:27;1.98;;;1.40;;
24401;SDS011;12539;48.808;11.292;2022-07-18T07:20:52;4.55;;;1.85;;
24401;SDS011;12539;48.808;11.292;2022-07-18T07:23:18;3.53;;;1.30;;
24401;SDS011;12539;48.808;11.292;2022-07-18T07:25:44;3.30;;;1.45;;
24401;SDS011;12539;48.808;11.292;2022-07-18T07:28:10;2.95;;;1.42;;
24401;SDS011;12539;48.808;11.292;2022-07-18T07:30:35;3.17;;;1.80;;
24401;SDS011;12539;48.808;11.292;2022-07-18T07:33:01;4.25;;;1.70;;
24401;SDS011;12539;48.808;11.292;2022-07-18T07:35:28;4.78;;;1.40;;
24401;SDS011;12539;48.808;11.292;2022-07-18T07:37:55;4.93;;;1.60;;
24401;SDS011;12539;48.808;11.292;2022-07-18T07:40:22;4.45;;;1.65;;
24401;SDS011;12539;48.808;11.292;2022-07-18T07:42:50;2.75;;;1.33;;
24401;SDS011;12539;48.808;11.292;2022-07-18T07:45:17;3.78;;;1.80;;
24401;SDS011;12539;48.808;11.292;2022-07-18T07:47:44;7.38;;;2.10;;
24401;SDS011;12539;48.808;11.292;2022-07-18T07:50:11;3.35;;;1.90;;
24401;SDS011;12539;48.808;11.292;2022-07-18T07:52:37;3.30;;;1.38;;
24401;SDS011;12539;48.808;11.292;2022-07-18T07:55:06;2.95;;;1.10;;
24401;SDS011;12539;48.808;11.292;2022-07-18T07:57:32;5.40;;;2.25;;
24401;SDS011;12539;48.808;11.292;2022-07-18T08:00:01;2.72;;;1.48;;
24401;SDS011;12539;48.808;11.292;2022-07-18T08:02:29;2.38;;;1.70;;
24401;SDS011;12539;48.808;11.292;2022-07-18T08:04:55;3.13;;;1.10;;
24401;SDS011;12539;48.808;11.292;2022-07-18T08:07:21;3.53;;;1.30;;
24401;SDS011;12539;48.808;11.292;2022-07-18T08:09:46;3.10;;;1.30;;
24401;SDS011;12539;48.808;11.292;2022-07-18T08:12:12;1.50;;;1.40;;
24401;SDS011;12539;48.808;11.292;2022-07-18T08:14:38;2.67;;;1.30;;
24401;SDS011;12539;48.808;11.292;2022-07-18T08:17:05;6.28;;;1.45;;
24401;SDS011;12539;48.808;11.292;2022-07-18T08:19:31;2.22;;;1.02;;
24401;SDS011;12539;48.808;11.292;2022-07-18T08:21:56;3.08;;;1.63;;
24401;SDS011;12539;48.808;11.292;2022-07-18T08:24:22;3.50;;;1.55;;
24401;SDS011;12539;48.808;11.292;2022-07-18T08:26:48;1.30;;;0.90;;
24401;SDS011;12539;48.808;11.292;2022-07-18T08:29:13;2.17;;;1.15;;
24401;SDS011;12539;48.808;11.292;2022-07-18T08:31:39;3.92;;;1.23;;
24401;SDS011;12539;48.808;11.292;2022-07-18T08:34:05;2.83;;;1.00;;
24401;SDS011;12539;48.808;11.292;2022-07-18T08:36:31;7.18;;;1.20;;
24401;SDS011;12539;48.808;11.292;2022-07-18T08:38:56;2.17;;;1.58;;
24401;SDS011;12539;48.808;11.292;2022-07-18T08:41:23;2.45;;;1.30;;
24401;SDS011;12539;48.808;11.292;2022-07-18T08:43:49;3.90;;;1.20;;
24401;SDS011;12539;48.808;11.292;2022-07-18T08:46:20;2.00;;;1.17;;
24401;SDS011;12539;48.808;11.292;2022-07-18T08:48:49;2.30;;;1.30;;
24401;SDS011;12539;48.808;11.292;2022-07-18T08:53:42;3.78;;;1.02;;
24401;SDS011;12539;48.808;11.292;2022-07-18T08:56:11;2.25;;;1.10;;
24401;SDS011;12539;48.808;11.292;2022-07-18T08:58:36;3.00;;;1.30;;
24401;SDS011;12539;48.808;11.292;2022-07-18T09:01:03;2.15;;;1.10;;
24401;SDS011;12539;48.808;11.292;2022-07-18T09:03:29;2.85;;;1.15;;
24401;SDS011;12539;48.808;11.292;2022-07-18T09:06:13;1.02;;;0.70;;
24401;SDS011;12539;48.808;11.292;2022-07-18T09:08:40;1.08;;;0.90;;
24401;SDS011;12539;48.808;11.292;2022-07-18T09:11:26;1.38;;;0.80;;
24401;SDS011;12539;48.808;11.292;2022-07-18T09:13:51;1.33;;;1.00;;
24401;SDS011;12539;48.808;11.292;2022-07-18T09:16:17;1.90;;;1.00;;
24401;SDS011;12539;48.808;11.292;2022-07-18T09:18:46;0.55;;;0.50;;
24401;SDS011;12539;48.808;11.292;2022-07-18T09:21:14;1.58;;;0.80;;
24401;SDS011;12539;48.808;11.292;2022-07-18T09:23:59;1.75;;;0.70;;
24401;SDS011;12539;48.808;11.292;2022-07-18T09:29:03;0.95;;;0.88;;
24401;SDS011;12539;48.808;11.292;2022-07-18T09:31:29;0.82;;;0.80;;
24401;SDS011;12539;48.808;11.292;2022-07-18T09:33:58;1.55;;;0.90;;
24401;SDS011;12539;48.808;11.292;2022-07-18T09:36:26;2.10;;;0.88;;
24401;SDS011;12539;48.808;11.292;2022-07-18T09:38:52;3.25;;;1.25;;
24401;SDS011;12539;48.808;11.292;2022-07-18T09:41:25;1.45;;;1.17;;
24401;SDS011;12539;48.808;11.292;2022-07-18T09:43:52;2.70;;;0.95;;
24401;SDS011;12539;48.808;11.292;2022-07-18T09:46:18;1.58;;;0.90;;
24401;SDS011;12539;48.808;11.292;2022-07-18T09:48:44;1.52;;;0.90;;
24401;SDS011;12539;48.808;11.292;2022-07-18T09:51:10;1.73;;;0.90;;
24401;SDS011;12539;48.808;11.292;2022-07-18T09:53:37;1.60;;;0.93;;
24401;SDS011;12539;48.808;11.292;2022-07-18T09:56:08;2.10;;;1.00;;
24401;SDS011;12539;48.808;11.292;2022-07-18T09:58:38;0.75;;;0.50;;
24401;SDS011;12539;48.808;11.292;2022-07-18T10:01:16;0.75;;;0.75;;
24401;SDS011;12539;48.808;11.292;2022-07-18T10:03:42;2.97;;;1.00;;
24401;SDS011;12539;48.808;11.292;2022-07-18T10:06:08;2.10;;;1.02;;
24401;SDS011;12539;48.808;11.292;2022-07-18T10:08:34;1.80;;;1.33;;
24401;SDS011;12539;48.808;11.292;2022-07-18T10:11:02;2.80;;;1.48;;
24401;SDS011;12539;48.808;11.292;2022-07-18T10:13:29;2.00;;;1.10;;
24401;SDS011;12539;48.808;11.292;2022-07-18T10:15:56;2.15;;;1.08;;
24401;SDS011;12539;48.808;11.292;2022-07-18T10:18:23;2.70;;;0.80;;
24401;SDS011;12539;48.808;11.292;2022-07-18T10:20:58;2.35;;;0.80;;
24401;SDS011;12539;48.808;11.292;2022-07-18T10:23:31;1.42;;;1.13;;
24401;SDS011;12539;48.808;11.292;2022-07-18T10:31:35;2.10;;;0.90;;
24401;SDS011;12539;48.808;11.292;2022-07-18T10:36:31;1.67;;;1.17;;
24401;SDS011;12539;48.808;11.292;2022-07-18T10:39:07;2.10;;;0.98;;
24401;SDS011;12539;48.808;11.292;2022-07-18T10:42:12;1.35;;;0.60;;
24401;SDS011;12539;48.808;11.292;2022-07-18T10:57:41;1.20;;;0.85;;
24401;SDS011;12539;48.808;11.292;2022-07-18T11:00:34;2.20;;;0.80;;
24401;SDS011;12539;48.808;11.292;2022-07-18T11:03:03;1.08;;;0.63;;
24401;SDS011;12539;48.808;11.292;2022-07-18T11:05:34;1.90;;;0.70;;
24401;SDS011;12539;48.808;11.292;2022-07-18T11:18:27;0.95;;;0.70;;
24401;SDS011;12539;48.808;11.292;2022-07-18T11:20:55;0.93;;;0.60;;
24401;SDS011;12539;48.808;11.292;2022-07-18T11:23:22;0.50;;;0.50;;
24401;SDS011;12539;48.808;11.292;2022-07-18T11:25:50;1.48;;;0.70;;
24401;SDS011;12539;48.808;11.292;2022-07-18T11:28:26;2.00;;;0.60;;
24401;SDS011;12539;48.808;11.292;2022-07-18T11:33:49;1.63;;;0.80;;
24401;SDS011;12539;48.808;11.292;2022-07-18T11:36:16;2.28;;;0.52;;
24401;SDS011;12539;48.808;11.292;2022-07-18T11:38:50;2.15;;;0.80;;
24401;SDS011;12539;48.808;11.292;2022-07-18T11:41:20;2.38;;;0.80;;
24401;SDS011;12539;48.808;11.292;2022-07-18T11:43:47;1.13;;;0.70;;
24401;SDS011;12539;48.808;11.292;2022-07-18T11:46:16;1.65;;;0.60;;
24401;SDS011;12539;48.808;11.292;2022-07-18T11:48:44;2.70;;;0.70;;
24401;SDS011;12539;48.808;11.292;2022-07-18T11:51:15;0.50;;;0.50;;
24401;SDS011;12539;48.808;11.292;2022-07-18T11:53:45;2.53;;;0.70;;
24401;SDS011;12539;48.808;11.292;2022-07-18T11:56:16;2.08;;;0.60;;
24401;SDS011;12539;48.808;11.292;2022-07-18T11:58:43;3.90;;;1.20;;
24401;SDS011;12539;48.808;11.292;2022-07-18T12:01:10;1.83;;;0.80;;
24401;SDS011;12539;48.808;11.292;2022-07-18T12:03:39;0.80;;;0.70;;
24401;SDS011;12539;48.808;11.292;2022-07-18T12:06:10;1.08;;;0.40;;
24401;SDS011;12539;48.808;11.292;2022-07-18T12:08:43;0.70;;;0.63;;
24401;SDS011;12539;48.808;11.292;2022-07-18T12:16:33;2.05;;;0.95;;
24401;SDS011;12539;48.808;11.292;2022-07-18T12:19:11;2.53;;;1.25;;
24401;SDS011;12539;48.808;11.292;2022-07-18T12:21:39;1.10;;;0.77;;
24401;SDS011;12539;48.808;11.292;2022-07-18T12:35:25;1.42;;;0.93;;
24401;SDS011;12539;48.808;11.292;2022-07-18T12:37:53;1.20;;;0.70;;
24401;SDS011;12539;48.808;11.292;2022-07-18T12:40:25;2.05;;;0.80;;
24401;SDS011;12539;48.808;11.292;2022-07-18T12:43:03;0.40;;;0.40;;
24401;SDS011;12539;48.808;11.292;2022-07-18T12:45:31;1.48;;;0.88;;
24401;SDS011;12539;48.808;11.292;2022-07-18T12:47:57;2.15;;;0.90;;
24401;SDS011;12539;48.808;11.292;2022-07-18T12:50:22;5.68;;;0.98;;
24401;SDS011;12539;48.808;11.292;2022-07-18T12:52:48;0.95;;;0.70;;
24401;SDS011;12539;48.808;11.292;2022-07-18T12:55:14;1.45;;;0.90;;
24401;SDS011;12539;48.808;11.292;2022-07-18T12:57:40;2.55;;;1.05;;
24401;SDS011;12539;48.808;11.292;2022-07-18T13:00:06;3.38;;;0.70;;
24401;SDS011;12539;48.808;11.292;2022-07-18T13:02:32;1.58;;;0.90;;
24401;SDS011;12539;48.808;11.292;2022-07-18T13:04:58;1.63;;;0.75;;
24401;SDS011;12539;48.808;11.292;2022-07-18T13:07:24;1.52;;;0.60;;
24401;SDS011;12539;48.808;11.292;2022-07-18T13:09:49;1.52;;;0.90;;
24401;SDS011;12539;48.808;11.292;2022-07-18T13:12:15;1.13;;;0.95;;
24401;SDS011;12539;48.808;11.292;2022-07-18T13:14:41;1.60;;;1.00;;
24401;SDS011;12539;48.808;11.292;2022-07-18T13:17:06;6.97;;;0.77;;
24401;SDS011;12539;48.808;11.292;2022-07-18T13:19:32;3.92;;;0.90;;
24401;SDS011;12539;48.808;11.292;2022-07-18T13:21:58;1.20;;;0.80;;
24401;SDS011;12539;48.808;11.292;2022-07-18T13:24:24;0.80;;;0.63;;
24401;SDS011;12539;48.808;11.292;2022-07-18T13:26:50;3.83;;;1.00;;
24401;SDS011;12539;48.808;11.292;2022-07-18T13:29:16;1.38;;;1.00;;
24401;SDS011;12539;48.808;11.292;2022-07-18T13:31:42;5.57;;;1.25;;
24401;SDS011;12539;48.808;11.292;2022-07-18T13:34:08;1.27;;;0.88;;
24401;SDS011;12539;48.808;11.292;2022-07-18T13:36:34;2.95;;;1.27;;
24401;SDS011;12539;48.808;11.292;2022-07-18T13:38:59;0.95;;;0.85;;
24401;SDS011;12539;48.808;11.292;2022-07-18T13:41:26;1.25;;;1.13;;
24401;SDS011;12539;48.808;11.292;2022-07-18T13:43:53;1.08;;;0.85;;
24401;SDS011;12539;48.808;11.292;2022-07-18T13:46:19;2.50;;;0.80;;
24401;SDS011;12539;48.808;11.292;2022-07-18T13:48:45;0.90;;;0.75;;
24401;SDS011;12539;48.808;11.292;2022-07-18T13:51:12;5.30;;;1.00;;
24401;SDS011;12539;48.808;11.292;2022-07-18T13:53:38;2.08;;;0.70;;
24401;SDS011;12539;48.808;11.292;2022-07-18T13:56:04;5.40;;;0.98;;
24401;SDS011;12539;48.808;11.292;2022-07-18T13:58:30;6.32;;;0.75;;
24401;SDS011;12539;48.808;11.292;2022-07-18T14:00:55;2.08;;;0.90;;
24401;SDS011;12539;48.808;11.292;2022-07-18T14:03:21;1.50;;;0.90;;
24401;SDS011;12539;48.808;11.292;2022-07-18T14:05:47;2.97;;;0.95;;
24401;SDS011;12539;48.808;11.292;2022-07-18T14:08:13;2.33;;;1.27;;
24401;SDS011;12539;48.808;11.292;2022-07-18T14:10:38;1.85;;;0.90;;
24401;SDS011;12539;48.808;11.292;2022-07-18T14:13:04;1.00;;;0.88;;
24401;SDS011;12539;48.808;11.292;2022-07-18T14:15:30;2.35;;;0.90;;
24401;SDS011;12539;48.808;11.292;2022-07-18T14:17:55;2.88;;;1.00;;
24401;SDS011;12539;48.808;11.292;2022-07-18T14:20:21;3.20;;;0.90;;
24401;SDS011;12539;48.808;11.292;2022-07-18T14:22:47;3.95;;;0.90;;
24401;SDS011;12539;48.808;11.292;2022-07-18T14:25:14;2.70;;;1.00;;
24401;SDS011;12539;48.808;11.292;2022-07-18T14:27:42;2.80;;;1.40;;
24401;SDS011;12539;48.808;11.292;2022-07-18T14:30:10;1.70;;;0.90;;
24401;SDS011;12539;48.808;11.292;2022-07-18T14:32:37;1.60;;;0.82;;
24401;SDS011;12539;48.808;11.292;2022-07-18T14:35:04;4.00;;;1.02;;
24401;SDS011;12539;48.808;11.292;2022-07-18T14:37:30;2.80;;;1.10;;
24401;SDS011;12539;48.808;11.292;2022-07-18T14:39:56;0.77;;;0.60;;
24401;SDS011;12539;48.808;11.292;2022-07-18T14:42:23;4.78;;;1.05;;
24401;SDS011;12539;48.808;11.292;2022-07-18T14:44:49;3.10;;;1.33;;
24401;SDS011;12539;48.808;11.292;2022-07-18T14:47:15;2.40;;;0.88;;
24401;SDS011;12539;48.808;11.292;2022-07-18T14:49:40;1.33;;;0.80;;
24401;SDS011;12539;48.808;11.292;2022-07-18T14:52:06;1.00;;;0.90;;
24401;SDS011;12539;48.808;11.292;2022-07-18T14:54:32;1.90;;;1.10;;
24401;SDS011;12539;48.808;11.292;2022-07-18T14:56:58;3.33;;;1.13;;
24401;SDS011;12539;48.808;11.292;2022-07-18T14:59:23;1.48;;;0.98;;
24401;SDS011;12539;48.808;11.292;2022-07-18T15:01:49;7.43;;;1.30;;
24401;SDS011;12539;48.808;11.292;2022-07-18T15:04:15;3.90;;;1.00;;
24401;SDS011;12539;48.808;11.292;2022-07-18T15:06:41;1.73;;;1.13;;
24401;SDS011;12539;48.808;11.292;2022-07-18T15:09:07;1.20;;;0.88;;
24401;SDS011;12539;48.808;11.292;2022-07-18T15:11:38;3.42;;;1.20;;
24401;SDS011;12539;48.808;11.292;2022-07-18T15:14:04;2.03;;;1.15;;
24401;SDS011;12539;48.808;11.292;2022-07-18T15:16:30;2.38;;;0.80;;
24401;SDS011;12539;48.808;11.292;2022-07-18T15:18:55;4.25;;;1.38;;
24401;SDS011;12539;48.808;11.292;2022-07-18T15:21:21;4.50;;;1.38;;
24401;SDS011;12539;48.808;11.292;2022-07-18T15:23:47;1.55;;;1.30;;
24401;SDS011;12539;48.808;11.292;2022-07-18T15:26:13;3.22;;;1.20;;
24401;SDS011;12539;48.808;11.292;2022-07-18T15:28:38;2.42;;;1.20;;
24401;SDS011;12539;48.808;11.292;2022-07-18T15:31:04;3.67;;;1.02;;
24401;SDS011;12539;48.808;11.292;2022-07-18T15:33:30;4.57;;;1.00;;